Time;durP1;ratioP1;P1;durP2;ratioP2;P2;SDS_P1;SDS_P2;PMS_P1;PMS_P2;Temp;Humidity;BMP_temperature;BMP_pressure;BME280_temperature;BME280_humidity;BME280_pressure;Samples;Min_cycle;Max_cycle;Signal;HPM_P1;HPM_P2
2024/01/22 00:00:28;;;;;;;4.72;1.45;;;5.00;99.90;;;;;;5035809;28;20036;-66
2024/01/22 00:02:54;;;;;;;5.13;2.28;;;5.10;99.90;;;;;;5036893;28;20049;-66
2024/01/22 00:05:19;;;;;;;5.75;1.35;;;5.10;99.90;;;;;;5034304;28;20076;-67
2024/01/22 00:07:45;;;;;;;6.05;1.98;;;5.10;99.90;;;;;;5032051;28;20025;-66
2024/01/22 00:10:11;;;;;;;8.45;1.58;;;5.10;99.90;;;;;;5034133;28;20523;-66
2024/01/22 00:12:37;;;;;;;3.28;1.05;;;5.10;99.90;;;;;;5034140;28;20025;-66
2024/01/22 00:15:03;;;;;;;4.95;1.67;;;5.30;99.90;;;;;;5032436;28;20038;-66
2024/01/22 00:17:28;;;;;;;5.03;1.65;;;5.40;99.90;;;;;;5029577;28;20026;-66
2024/01/22 00:19:54;;;;;;;5.88;2.20;;;5.40;99.90;;;;;;5030512;28;20479;-66
2024/01/22 00:22:20;;;;;;;8.50;1.42;;;5.40;99.90;;;;;;5029716;28;20025;-66
2024/01/22 00:24:46;;;;;;;3.45;1.20;;;5.40;99.90;;;;;;5033852;28;20460;-66
2024/01/22 00:27:11;;;;;;;3.58;1.63;;;5.30;99.90;;;;;;5028813;28;20029;-65
2024/01/22 00:29:37;;;;;;;8.07;2.00;;;5.30;99.90;;;;;;5029065;28;20025;-66
2024/01/22 00:32:03;;;;;;;4.03;1.33;;;5.30;99.90;;;;;;5030236;28;20112;-65
2024/01/22 00:34:29;;;;;;;6.18;1.75;;;5.30;99.90;;;;;;5027023;28;20030;-65
2024/01/22 00:36:54;;;;;;;4.55;1.50;;;5.40;99.90;;;;;;5024944;28;20036;-66
2024/01/22 00:39:21;;;;;;;5.88;1.40;;;5.50;99.90;;;;;;5026811;28;20370;-66
2024/01/22 00:41:46;;;;;;;3.17;1.20;;;5.50;99.90;;;;;;5028858;28;20090;-65
2024/01/22 00:44:12;;;;;;;5.93;1.77;;;5.50;99.90;;;;;;5023951;28;20072;-66
2024/01/22 00:46:38;;;;;;;5.57;1.60;;;5.50;99.90;;;;;;5026311;28;20100;-66
2024/01/22 00:49:04;;;;;;;2.70;1.60;;;5.50;99.90;;;;;;5025481;28;20052;-66
2024/01/22 00:51:29;;;;;;;2.50;1.38;;;5.50;99.90;;;;;;4999761;28;20057;-65
2024/01/22 00:53:55;;;;;;;2.75;1.33;;;5.50;99.90;;;;;;5043972;28;20037;-66
2024/01/22 00:56:21;;;;;;;6.22;1.45;;;5.50;99.90;;;;;;5046556;28;20072;-66
2024/01/22 00:58:47;;;;;;;6.90;1.35;;;5.50;99.90;;;;;;5049563;28;20049;-66
2024/01/22 01:01:13;;;;;;;8.70;2.75;;;5.50;99.90;;;;;;5047083;28;20398;-66
2024/01/22 01:03:38;;;;;;;4.10;1.30;;;5.50;99.90;;;;;;5040086;28;20037;-66
2024/01/22 01:06:04;;;;;;;2.67;1.35;;;5.50;99.90;;;;;;5043621;28;20025;-66
2024/01/22 01:08:30;;;;;;;3.25;1.75;;;5.50;99.90;;;;;;5047565;28;20029;-64
2024/01/22 01:10:56;;;;;;;3.42;1.20;;;5.50;99.90;;;;;;5045727;28;20123;-64
2024/01/22 01:13:22;;;;;;;4.05;1.60;;;5.40;99.90;;;;;;5044469;28;20040;-63
2024/01/22 01:15:48;;;;;;;3.40;1.27;;;5.40;99.90;;;;;;5052435;28;20032;-64
2024/01/22 01:18:13;;;;;;;5.32;1.80;;;5.40;99.90;;;;;;5047248;28;20090;-62
2024/01/22 01:20:39;;;;;;;2.78;1.20;;;5.40;99.90;;;;;;5041163;28;20090;-64
2024/01/22 01:23:05;;;;;;;2.00;1.30;;;5.40;99.90;;;;;;5041222;28;20029;-64
2024/01/22 01:25:32;;;;;;;5.78;1.52;;;5.40;99.90;;;;;;5035773;28;20060;-63
2024/01/22 01:27:58;;;;;;;4.32;1.73;;;5.40;99.90;;;;;;5020739;28;20044;-64
2024/01/22 01:30:23;;;;;;;8.82;1.58;;;5.50;99.90;;;;;;5025072;28;20029;-64
2024/01/22 01:32:49;;;;;;;2.63;1.38;;;5.60;99.90;;;;;;5032798;28;20572;-64
2024/01/22 01:35:15;;;;;;;3.92;1.08;;;5.70;99.90;;;;;;5026685;28;20450;-62
2024/01/22 01:37:40;;;;;;;3.10;1.17;;;5.80;99.90;;;;;;5026646;28;20037;-64
2024/01/22 01:40:07;;;;;;;8.98;1.65;;;5.90;99.90;;;;;;5028226;28;20038;-63
2024/01/22 01:42:32;;;;;;;3.20;0.95;;;6.00;99.90;;;;;;5023225;28;20033;-64
2024/01/22 01:44:58;;;;;;;5.45;0.93;;;6.00;99.90;;;;;;5030568;28;20121;-64
2024/01/22 01:47:24;;;;;;;2.47;0.95;;;6.00;99.90;;;;;;5031964;28;20022;-63
2024/01/22 01:49:50;;;;;;;1.30;0.80;;;6.10;99.90;;;;;;5024863;28;20040;-64
2024/01/22 01:52:18;;;;;;;3.13;1.52;;;6.10;99.90;;;;;;5028466;28;20022;-63
2024/01/22 01:54:45;;;;;;;3.47;0.90;;;6.10;99.90;;;;;;5025637;28;21779;-62
2024/01/22 01:57:12;;;;;;;6.68;1.23;;;6.20;99.90;;;;;;5024400;28;20033;-63
2024/01/22 01:59:41;;;;;;;1.73;0.80;;;6.30;99.90;;;;;;5022914;28;20033;-64
2024/01/22 02:02:07;;;;;;;2.00;0.90;;;6.30;99.90;;;;;;5005480;28;20049;-64
2024/01/22 02:04:32;;;;;;;11.73;1.48;;;6.30;99.90;;;;;;5029518;28;20508;-63
2024/01/22 02:06:59;;;;;;;1.63;0.75;;;6.30;99.90;;;;;;5025985;28;20029;-62
2024/01/22 02:09:43;;;;;;;2.47;1.00;;;6.30;99.90;;;;;;5030673;28;20025;-64
2024/01/22 02:12:09;;;;;;;3.20;0.88;;;6.40;99.90;;;;;;5026306;28;20075;-64
2024/01/22 02:14:35;;;;;;;1.30;0.90;;;6.40;99.90;;;;;;5030592;28;20022;-64
2024/01/22 02:17:00;;;;;;;4.47;0.98;;;6.40;99.90;;;;;;5029092;28;20033;-63
2024/01/22 02:19:26;;;;;;;2.95;0.75;;;6.50;99.90;;;;;;5023815;28;20025;-64
2024/01/22 02:21:52;;;;;;;3.03;1.17;;;6.50;99.90;;;;;;5025741;28;20128;-64
2024/01/22 02:24:17;;;;;;;1.58;0.90;;;6.60;99.90;;;;;;5029875;28;20147;-63
2024/01/22 02:26:43;;;;;;;6.65;1.00;;;6.50;99.90;;;;;;5031426;28;20179;-64
2024/01/22 02:29:09;;;;;;;1.95;0.70;;;6.50;99.90;;;;;;5004121;28;20025;-63
2024/01/22 02:31:34;;;;;;;4.78;1.00;;;6.50;99.90;;;;;;5024360;28;20030;-63
2024/01/22 02:34:00;;;;;;;1.75;0.80;;;6.50;99.90;;;;;;5030956;28;20029;-64
2024/01/22 02:36:25;;;;;;;2.70;1.00;;;6.50;99.90;;;;;;5029407;28;20072;-63
2024/01/22 02:38:51;;;;;;;2.45;0.85;;;6.50;99.90;;;;;;5027216;28;20824;-65
2024/01/22 02:41:17;;;;;;;2.08;0.68;;;6.50;99.90;;;;;;5029182;28;20029;-64
2024/01/22 02:43:42;;;;;;;1.42;0.77;;;6.60;99.90;;;;;;5026888;28;20108;-66
2024/01/22 02:46:08;;;;;;;1.67;0.73;;;6.60;99.90;;;;;;5028707;28;20033;-63
2024/01/22 02:48:34;;;;;;;4.72;1.10;;;6.60;99.90;;;;;;5029353;28;20021;-63
2024/01/22 02:50:59;;;;;;;3.60;1.00;;;6.60;99.90;;;;;;5025775;28;20097;-62
2024/01/22 02:53:25;;;;;;;4.65;0.90;;;6.60;99.90;;;;;;5030963;28;20494;-64
2024/01/22 02:55:51;;;;;;;4.97;1.13;;;6.60;99.90;;;;;;5030219;28;20033;-62
2024/01/22 02:58:16;;;;;;;4.35;0.98;;;6.60;99.90;;;;;;5029856;28;20428;-63
2024/01/22 03:00:42;;;;;;;1.95;1.02;;;6.60;99.90;;;;;;5023372;28;20531;-65
2024/01/22 03:03:08;;;;;;;4.18;1.30;;;6.60;99.90;;;;;;5026008;28;20043;-64
2024/01/22 03:05:33;;;;;;;4.40;1.27;;;6.60;99.90;;;;;;5006698;28;20040;-64
2024/01/22 03:08:00;;;;;;;3.88;1.08;;;6.70;99.90;;;;;;5026412;28;20025;-64
2024/01/22 03:10:26;;;;;;;5.88;1.17;;;6.70;99.90;;;;;;5028039;28;20052;-64
2024/01/22 03:12:52;;;;;;;1.90;1.15;;;6.70;99.90;;;;;;5028207;28;20150;-64
2024/01/22 03:15:17;;;;;;;2.83;1.10;;;6.70;99.90;;;;;;5023279;28;20487;-64
2024/01/22 03:17:43;;;;;;;1.75;0.82;;;6.70;99.90;;;;;;5024791;28;20029;-62
2024/01/22 03:20:09;;;;;;;3.97;1.15;;;6.70;99.90;;;;;;5027074;28;20035;-63
2024/01/22 03:22:35;;;;;;;3.33;1.13;;;6.70;99.90;;;;;;5025265;28;20032;-64
2024/01/22 03:25:01;;;;;;;1.40;0.80;;;6.70;99.90;;;;;;5023859;28;20033;-64
2024/01/22 03:27:27;;;;;;;2.08;0.98;;;6.70;99.90;;;;;;5025046;28;20506;-64
2024/01/22 03:29:52;;;;;;;2.42;1.00;;;6.70;99.90;;;;;;5023346;28;20037;-64
2024/01/22 03:32:18;;;;;;;0.90;0.70;;;6.70;99.90;;;;;;4994601;28;20133;-63
2024/01/22 03:34:43;;;;;;;2.80;1.13;;;6.70;99.90;;;;;;5025540;28;20051;-64
2024/01/22 03:37:09;;;;;;;1.55;0.93;;;6.80;99.90;;;;;;5026033;28;20022;-64
2024/01/22 03:39:35;;;;;;;4.65;1.83;;;6.80;99.90;;;;;;5028804;28;20491;-64
2024/01/22 03:42:00;;;;;;;2.50;1.08;;;6.80;99.90;;;;;;5029213;28;20056;-63
2024/01/22 03:44:26;;;;;;;1.05;0.60;;;6.80;99.90;;;;;;5025971;28;20018;-64
2024/01/22 03:46:51;;;;;;;1.95;1.25;;;6.80;99.90;;;;;;5027751;28;20041;-63
2024/01/22 03:49:17;;;;;;;3.63;1.60;;;6.80;99.90;;;;;;5023843;28;20040;-62
2024/01/22 03:51:42;;;;;;;3.58;0.77;;;6.80;99.90;;;;;;5023027;28;20052;-64
2024/01/22 03:54:08;;;;;;;4.40;1.25;;;6.80;99.90;;;;;;5029797;28;20032;-65
2024/01/22 03:56:33;;;;;;;1.85;0.57;;;6.80;99.90;;;;;;5027390;28;20095;-64
2024/01/22 03:58:59;;;;;;;2.53;0.77;;;6.70;99.90;;;;;;5025463;28;20495;-63
2024/01/22 04:01:25;;;;;;;0.98;0.70;;;6.80;99.90;;;;;;5026010;28;20022;-63
2024/01/22 04:03:51;;;;;;;1.08;0.63;;;6.80;99.90;;;;;;5025917;28;20022;-64
2024/01/22 04:06:16;;;;;;;2.63;1.15;;;6.70;99.90;;;;;;5026869;28;20091;-64
2024/01/22 04:08:42;;;;;;;0.68;0.55;;;6.70;99.90;;;;;;5023913;28;20034;-64
2024/01/22 04:11:08;;;;;;;1.35;0.60;;;6.80;99.90;;;;;;5028946;28;20029;-64
2024/01/22 04:13:33;;;;;;;0.93;0.52;;;6.80;99.90;;;;;;5029016;28;20039;-63
2024/01/22 04:15:59;;;;;;;0.77;0.65;;;6.80;99.90;;;;;;5026535;28;20135;-63
2024/01/22 04:18:24;;;;;;;1.33;0.70;;;6.80;99.90;;;;;;5027622;28;20026;-63
2024/01/22 04:20:50;;;;;;;1.73;0.60;;;6.90;99.90;;;;;;5025102;28;20075;-63
2024/01/22 04:23:16;;;;;;;4.63;0.77;;;6.80;99.90;;;;;;5028267;28;20021;-64
2024/01/22 04:25:41;;;;;;;2.22;0.82;;;6.90;99.90;;;;;;5025113;28;20475;-64
2024/01/22 04:28:07;;;;;;;0.77;0.63;;;6.80;99.90;;;;;;5027611;28;20024;-63
2024/01/22 04:30:32;;;;;;;1.25;0.50;;;6.80;99.90;;;;;;5023215;28;20041;-66
2024/01/22 04:32:58;;;;;;;0.93;0.60;;;6.80;99.90;;;;;;5026257;28;20706;-64
2024/01/22 04:35:23;;;;;;;4.78;0.90;;;6.80;99.90;;;;;;5027215;28;20040;-64
2024/01/22 04:37:49;;;;;;;2.88;0.73;;;6.80;99.90;;;;;;5028742;28;20036;-63
2024/01/22 04:40:15;;;;;;;5.40;0.80;;;6.80;99.90;;;;;;5032472;28;20553;-63
2024/01/22 04:42:41;;;;;;;0.77;0.52;;;6.90;99.90;;;;;;5033221;28;20021;-63
2024/01/22 04:45:08;;;;;;;0.80;0.38;;;6.80;99.90;;;;;;5031516;28;20024;-63
2024/01/22 04:47:34;;;;;;;1.52;0.60;;;6.70;99.90;;;;;;5030951;28;20024;-63
2024/01/22 04:50:00;;;;;;;1.77;0.80;;;6.70;99.90;;;;;;5028707;28;20376;-64
2024/01/22 04:52:25;;;;;;;1.55;0.55;;;6.70;99.90;;;;;;5030718;28;20029;-63
2024/01/22 04:54:51;;;;;;;2.72;0.73;;;6.70;99.90;;;;;;5030338;28;20079;-65
2024/01/22 04:57:16;;;;;;;1.73;0.63;;;6.70;99.90;;;;;;5029678;28;20026;-63
2024/01/22 04:59:42;;;;;;;1.27;0.70;;;6.60;99.90;;;;;;5029038;28;20034;-64
2024/01/22 05:02:08;;;;;;;1.42;0.50;;;6.60;99.90;;;;;;5029506;28;20139;-63
2024/01/22 05:04:33;;;;;;;0.45;0.40;;;6.60;99.90;;;;;;5031850;28;20519;-63
2024/01/22 05:06:59;;;;;;;1.83;0.63;;;6.60;99.90;;;;;;5030963;28;20387;-63
2024/01/22 05:09:24;;;;;;;0.63;0.50;;;6.60;99.90;;;;;;5029887;28;20037;-64
2024/01/22 05:11:50;;;;;;;5.55;0.95;;;6.50;99.90;;;;;;5028060;28;20553;-63
2024/01/22 05:14:16;;;;;;;2.10;0.70;;;6.50;99.90;;;;;;5030120;28;20025;-64
2024/01/22 05:16:41;;;;;;;0.98;0.50;;;6.50;99.90;;;;;;5013068;28;20037;-65
2024/01/22 05:19:07;;;;;;;8.95;0.82;;;6.50;99.90;;;;;;5028606;28;20030;-64
2024/01/22 05:21:32;;;;;;;2.72;0.77;;;6.50;99.90;;;;;;5027745;28;20052;-61
2024/01/22 05:23:58;;;;;;;1.60;0.70;;;6.50;99.90;;;;;;5030565;28;20021;-63
2024/01/22 05:26:23;;;;;;;0.77;0.50;;;6.50;99.90;;;;;;5028747;28;20430;-64
2024/01/22 05:28:49;;;;;;;1.42;0.75;;;6.50;99.90;;;;;;5028767;28;20036;-63
2024/01/22 05:31:15;;;;;;;2.50;0.60;;;6.60;99.90;;;;;;5028272;28;20026;-63
2024/01/22 05:33:42;;;;;;;1.23;0.60;;;6.60;99.90;;;;;;5030742;28;20430;-64
2024/01/22 05:36:09;;;;;;;1.17;0.60;;;6.60;99.90;;;;;;5028755;28;20032;-64
2024/01/22 05:38:38;;;;;;;1.08;0.73;;;6.60;99.90;;;;;;5029874;28;20029;-64
2024/01/22 05:41:03;;;;;;;3.25;0.80;;;6.60;99.90;;;;;;5028802;28;20044;-63
2024/01/22 05:43:29;;;;;;;1.27;0.80;;;6.60;99.90;;;;;;5032360;28;20029;-63
2024/01/22 05:45:54;;;;;;;0.55;0.40;;;6.60;99.90;;;;;;5029107;28;20025;-64
2024/01/22 05:48:20;;;;;;;2.20;0.63;;;6.60;99.90;;;;;;5028002;28;20030;-64
2024/01/22 05:50:46;;;;;;;3.38;0.70;;;6.70;99.90;;;;;;5029311;28;20030;-64
2024/01/22 05:53:11;;;;;;;1.30;0.70;;;6.70;99.90;;;;;;5031880;28;20052;-64
2024/01/22 05:55:39;;;;;;;3.28;0.73;;;6.70;99.90;;;;;;5024399;28;20032;-64
2024/01/22 05:58:05;;;;;;;1.48;0.65;;;6.70;99.90;;;;;;5026932;28;20029;-63
2024/01/22 06:00:30;;;;;;;5.40;0.70;;;6.70;99.90;;;;;;5027575;28;20033;-63
2024/01/22 06:02:58;;;;;;;1.73;0.60;;;6.70;99.90;;;;;;5029741;28;20104;-64
2024/01/22 06:05:25;;;;;;;1.55;0.60;;;6.70;99.90;;;;;;5027394;28;20069;-64
2024/01/22 06:07:50;;;;;;;1.08;0.60;;;6.80;99.90;;;;;;5028429;28;20080;-64
2024/01/22 06:10:16;;;;;;;1.23;0.70;;;6.70;99.90;;;;;;5029614;28;20029;-64
2024/01/22 06:12:42;;;;;;;2.25;0.70;;;6.80;99.90;;;;;;5029214;28;20437;-63
2024/01/22 06:15:08;;;;;;;1.73;0.57;;;6.80;99.90;;;;;;5024581;28;20056;-64
2024/01/22 06:17:33;;;;;;;3.88;0.63;;;6.90;99.90;;;;;;5029161;28;20080;-65
2024/01/22 06:20:00;;;;;;;1.05;0.47;;;6.90;99.90;;;;;;5028769;28;20029;-64
2024/01/22 06:22:29;;;;;;;1.80;0.52;;;6.90;99.90;;;;;;5029226;28;20527;-64
2024/01/22 06:24:54;;;;;;;1.65;0.50;;;6.90;99.90;;;;;;5027360;28;20029;-64
2024/01/22 06:27:21;;;;;;;0.40;0.40;;;6.90;99.90;;;;;;5027361;28;20037;-64
2024/01/22 06:29:47;;;;;;;0.50;0.40;;;7.00;99.90;;;;;;5026097;28;20403;-65
2024/01/22 06:32:13;;;;;;;1.42;0.57;;;7.00;99.90;;;;;;5029557;28;20025;-64
2024/01/22 06:34:38;;;;;;;0.93;0.45;;;7.00;99.90;;;;;;5026648;28;20116;-63
2024/01/22 06:37:04;;;;;;;0.60;0.35;;;7.00;99.90;;;;;;5024733;28;20060;-65
2024/01/22 06:39:30;;;;;;;2.28;0.77;;;7.10;99.90;;;;;;5022194;28;20035;-63
2024/01/22 06:41:56;;;;;;;1.45;0.45;;;7.10;99.90;;;;;;5027614;28;20033;-64
2024/01/22 06:44:21;;;;;;;0.63;0.30;;;7.10;99.90;;;;;;5028785;28;20100;-64
2024/01/22 06:46:47;;;;;;;0.80;0.40;;;7.20;99.90;;;;;;5026675;28;20025;-65
2024/01/22 06:49:13;;;;;;;0.20;0.20;;;7.20;99.90;;;;;;5028551;28;20025;-65
2024/01/22 06:51:38;;;;;;;0.32;0.20;;;7.20;99.90;;;;;;5027328;28;20030;-65
2024/01/22 06:54:04;;;;;;;0.35;0.30;;;7.20;99.90;;;;;;5027244;28;20033;-64
2024/01/22 06:56:29;;;;;;;2.10;0.50;;;7.20;99.90;;;;;;5028185;28;20029;-65
2024/01/22 06:58:56;;;;;;;1.90;0.30;;;7.20;99.90;;;;;;5029335;28;20032;-65
2024/01/22 07:01:21;;;;;;;0.47;0.22;;;7.20;99.90;;;;;;5023233;28;20033;-65
2024/01/22 07:03:47;;;;;;;0.30;0.30;;;7.20;99.90;;;;;;5029534;28;20034;-65
2024/01/22 07:06:12;;;;;;;4.57;0.43;;;7.30;99.90;;;;;;5024250;28;20069;-65
2024/01/22 07:11:06;;;;;;;1.58;0.40;;;7.30;99.90;;;;;;5024671;28;20053;-68
2024/01/22 07:13:32;;;;;;;4.32;0.40;;;7.30;99.90;;;;;;5030618;28;20029;-67
2024/01/22 07:16:01;;;;;;;0.40;0.30;;;7.40;99.90;;;;;;5031424;28;20022;-67
2024/01/22 07:18:26;;;;;;;2.40;0.52;;;7.40;99.90;;;;;;5029963;28;20021;-67
2024/01/22 07:20:53;;;;;;;0.65;0.35;;;7.40;99.90;;;;;;5050070;28;20036;-68
2024/01/22 07:23:19;;;;;;;0.82;0.50;;;7.40;99.90;;;;;;5051282;28;20485;-67
2024/01/22 07:25:44;;;;;;;0.45;0.30;;;7.50;99.90;;;;;;5051665;28;20025;-67
2024/01/22 07:28:11;;;;;;;1.30;0.65;;;7.40;99.90;;;;;;5051225;28;20033;-67
2024/01/22 07:30:37;;;;;;;0.90;0.35;;;7.50;99.90;;;;;;5050984;28;20031;-68
2024/01/22 07:33:03;;;;;;;0.68;0.47;;;7.50;99.90;;;;;;5051121;28;20032;-69
2024/01/22 07:35:29;;;;;;;1.05;0.45;;;7.60;99.90;;;;;;5050861;28;20104;-67
2024/01/22 07:37:55;;;;;;;0.57;0.40;;;7.60;99.90;;;;;;5031562;28;20119;-67
2024/01/22 07:40:20;;;;;;;0.90;0.50;;;7.60;99.90;;;;;;5050855;28;20112;-67
2024/01/22 07:42:46;;;;;;;0.95;0.30;;;7.60;99.90;;;;;;5051173;28;20471;-68
2024/01/22 07:45:12;;;;;;;1.80;0.50;;;7.70;99.90;;;;;;5051276;28;20028;-68
2024/01/22 07:47:38;;;;;;;3.30;1.10;;;7.70;99.90;;;;;;5033370;28;20017;-68
2024/01/22 07:50:10;;;;;;;3.00;1.30;;;7.70;99.90;;;;;;5051046;28;20017;-68
2024/01/22 07:52:36;;;;;;;16.55;5.70;;;7.70;99.90;;;;;;5051498;28;20375;-67
2024/01/22 07:55:02;;;;;;;5.35;4.03;;;7.70;99.90;;;;;;5051058;28;20021;-68
2024/01/22 07:57:28;;;;;;;21.50;11.23;;;7.70;99.90;;;;;;5051077;28;20029;-68
2024/01/22 07:59:54;;;;;;;72.20;32.45;;;7.70;99.90;;;;;;5049458;28;20064;-67
2024/01/22 08:02:19;;;;;;;5.10;2.15;;;7.70;99.90;;;;;;5050912;28;20056;-67
2024/01/22 08:04:45;;;;;;;0.60;0.60;;;7.80;99.90;;;;;;5033146;28;20059;-67
2024/01/22 08:07:11;;;;;;;1.50;1.02;;;7.90;99.90;;;;;;5050806;28;20075;-70
2024/01/22 08:09:37;;;;;;;4.28;1.95;;;7.90;99.90;;;;;;5050703;28;20121;-68
2024/01/22 08:12:03;;;;;;;11.73;4.13;;;7.90;99.90;;;;;;5050547;28;20025;-67
2024/01/22 08:14:30;;;;;;;42.83;14.30;;;7.90;99.90;;;;;;5054494;28;20060;-67
2024/01/22 08:16:56;;;;;;;54.35;17.25;;;7.90;99.90;;;;;;5054629;28;20024;-68
2024/01/22 08:19:22;;;;;;;79.20;23.83;;;7.90;99.90;;;;;;5054416;28;20490;-68
2024/01/22 08:21:47;;;;;;;53.92;16.30;;;7.90;99.90;;;;;;5054357;28;20044;-67
2024/01/22 08:24:13;;;;;;;27.52;10.75;;;8.00;99.90;;;;;;5054367;28;20387;-67
2024/01/22 08:26:38;;;;;;;28.45;9.48;;;8.00;99.90;;;;;;5054076;28;20025;-67
2024/01/22 08:29:04;;;;;;;12.73;4.78;;;8.00;99.90;;;;;;5054280;28;20047;-68
2024/01/22 08:31:29;;;;;;;8.88;3.40;;;8.00;99.90;;;;;;5054376;28;20485;-67
2024/01/22 08:33:56;;;;;;;5.20;1.48;;;8.00;99.90;;;;;;5054153;28;20025;-67
2024/01/22 08:36:22;;;;;;;10.90;3.92;;;7.90;99.90;;;;;;5054228;28;20021;-67
2024/01/22 08:38:48;;;;;;;2.47;1.25;;;7.90;99.90;;;;;;5054200;28;20025;-67
2024/01/22 08:41:13;;;;;;;3.20;1.70;;;7.90;99.90;;;;;;5049522;28;20061;-67
2024/01/22 08:43:40;;;;;;;4.00;1.45;;;7.90;99.90;;;;;;5034174;28;20040;-67
2024/01/22 08:46:05;;;;;;;7.13;2.58;;;7.90;99.90;;;;;;5032890;28;20029;-67
2024/01/22 08:48:31;;;;;;;5.15;2.05;;;7.90;99.90;;;;;;5033435;28;20029;-67
2024/01/22 08:50:57;;;;;;;5.28;1.77;;;8.00;99.90;;;;;;5034010;28;20026;-67
2024/01/22 08:53:23;;;;;;;2.28;0.73;;;8.10;99.90;;;;;;5033770;28;20048;-67
2024/01/22 08:55:48;;;;;;;4.80;1.92;;;8.10;99.90;;;;;;5033939;28;20650;-68
2024/01/22 08:58:15;;;;;;;3.15;1.40;;;8.10;99.90;;;;;;5015761;28;20029;-67
2024/01/22 09:00:41;;;;;;;2.95;1.27;;;8.20;99.90;;;;;;5033196;28;20443;-67
2024/01/22 09:03:06;;;;;;;3.15;2.03;;;8.30;99.90;;;;;;5032749;28;20168;-67
2024/01/22 09:05:32;;;;;;;1.85;0.77;;;8.30;99.90;;;;;;5032863;28;20032;-67
2024/01/22 09:07:58;;;;;;;1.23;0.77;;;8.40;99.90;;;;;;5032668;28;20395;-68
2024/01/22 09:10:23;;;;;;;1.50;0.70;;;8.40;99.90;;;;;;5032834;28;20033;-67
2024/01/22 09:12:49;;;;;;;1.10;0.50;;;8.50;99.90;;;;;;5032827;28;20029;-67
2024/01/22 09:15:18;;;;;;;1.13;0.45;;;8.50;99.90;;;;;;5033407;28;20060;-68
2024/01/22 09:17:44;;;;;;;1.10;0.50;;;8.50;99.90;;;;;;5033343;28;20093;-67
2024/01/22 09:20:10;;;;;;;0.90;0.73;;;8.60;99.90;;;;;;5032600;28;20104;-67
2024/01/22 09:22:37;;;;;;;0.82;0.57;;;8.70;99.90;;;;;;5040152;28;20025;-67
2024/01/22 09:25:03;;;;;;;0.60;0.40;;;8.80;99.90;;;;;;5051918;28;20029;-67
2024/01/22 09:27:28;;;;;;;1.13;0.50;;;8.80;99.90;;;;;;5052677;28;20018;-67
2024/01/22 09:29:55;;;;;;;0.50;0.40;;;8.90;99.90;;;;;;5052682;28;20409;-67
2024/01/22 09:32:21;;;;;;;1.73;0.60;;;9.00;99.90;;;;;;5052988;28;20025;-67
2024/01/22 09:34:46;;;;;;;5.82;2.05;;;9.10;99.90;;;;;;5052649;28;20096;-68
2024/01/22 09:37:12;;;;;;;5.85;1.98;;;9.10;99.90;;;;;;5052903;28;20021;-68
2024/01/22 09:39:38;;;;;;;3.83;1.60;;;9.20;99.90;;;;;;5052509;28;20403;-67
2024/01/22 09:42:05;;;;;;;5.00;1.38;;;9.30;99.90;;;;;;5052733;28;20055;-68
2024/01/22 09:44:32;;;;;;;8.15;2.42;;;9.40;99.90;;;;;;5052402;28;20558;-68
2024/01/22 09:46:59;;;;;;;8.02;2.75;;;9.60;99.90;;;;;;5052234;28;20052;-68
2024/01/22 09:49:24;;;;;;;8.63;3.90;;;9.70;99.90;;;;;;5052695;28;20051;-67
2024/01/22 09:51:51;;;;;;;15.73;5.50;;;9.90;99.90;;;;;;5051914;28;20037;-67
2024/01/22 09:54:18;;;;;;;8.55;2.97;;;10.00;99.90;;;;;;5051971;28;20538;-67
2024/01/22 09:56:52;;;;;;;13.23;3.35;;;10.10;99.90;;;;;;5052182;28;20028;-67
2024/01/22 09:59:20;;;;;;;12.43;3.75;;;10.20;99.90;;;;;;5052666;28;20025;-68
2024/01/22 10:01:50;;;;;;;18.55;3.72;;;10.20;99.90;;;;;;5034288;28;20059;-68
2024/01/22 10:04:17;;;;;;;11.00;3.25;;;10.30;99.90;;;;;;5052520;28;20048;-67
2024/01/22 10:06:44;;;;;;;6.85;2.40;;;10.30;99.90;;;;;;5052294;28;20025;-67
2024/01/22 10:09:14;;;;;;;4.85;1.77;;;10.30;99.90;;;;;;5052227;28;20041;-68
2024/01/22 10:11:41;;;;;;;6.88;1.80;;;10.20;99.90;;;;;;5052133;28;20108;-67
2024/01/22 10:14:07;;;;;;;7.93;2.78;;;10.20;99.90;;;;;;5033058;28;20845;-68
2024/01/22 10:16:32;;;;;;;9.13;2.92;;;10.10;99.90;;;;;;5051911;28;20108;-67
2024/01/22 10:19:00;;;;;;;4.55;2.03;;;10.10;99.90;;;;;;5051886;28;20475;-68
2024/01/22 10:21:28;;;;;;;3.67;2.22;;;10.10;99.90;;;;;;5051916;28;20025;-68
2024/01/22 10:24:00;;;;;;;3.53;1.17;;;10.10;99.90;;;;;;5052007;28;20021;-68
2024/01/22 10:26:27;;;;;;;1.88;0.50;;;10.00;99.90;;;;;;5033813;28;20021;-68
2024/01/22 10:28:54;;;;;;;1.23;0.50;;;10.10;99.90;;;;;;5051660;28;20043;-68
2024/01/22 10:31:20;;;;;;;31.08;9.75;;;10.00;99.90;;;;;;5051767;28;20036;-68
2024/01/22 10:33:46;;;;;;;16.48;6.57;;;10.00;99.90;;;;;;5051985;28;20029;-68
2024/01/22 10:36:19;;;;;;;6.50;3.53;;;10.00;99.90;;;;;;5051288;28;20021;-68
2024/01/22 10:38:48;;;;;;;0.68;0.65;;;10.00;99.90;;;;;;5051552;28;20021;-68
2024/01/22 10:41:18;;;;;;;1.02;0.90;;;10.00;99.90;;;;;;5051779;28;20430;-68
2024/01/22 10:43:44;;;;;;;4.25;2.00;;;10.00;99.90;;;;;;5051752;28;20027;-68
2024/01/22 10:46:11;;;;;;;7.93;3.85;;;10.00;99.90;;;;;;5051650;28;20029;-68
2024/01/22 10:48:37;;;;;;;3.90;1.35;;;10.00;99.90;;;;;;5051393;28;20108;-68
2024/01/22 10:51:05;;;;;;;1.63;1.02;;;10.00;99.90;;;;;;5051672;28;20368;-68
2024/01/22 10:53:32;;;;;;;0.60;0.50;;;10.00;99.90;;;;;;5051632;28;20032;-68
2024/01/22 10:56:01;;;;;;;2.83;1.13;;;9.90;99.90;;;;;;5051669;28;20025;-68
2024/01/22 10:58:32;;;;;;;1.08;0.90;;;9.90;99.90;;;;;;5051250;28;20025;-68
2024/01/22 11:01:01;;;;;;;1.10;0.80;;;9.90;99.90;;;;;;5033324;28;20037;-68
2024/01/22 11:03:28;;;;;;;1.05;0.82;;;9.90;99.90;;;;;;5051443;28;20411;-68
2024/01/22 11:05:59;;;;;;;2.17;1.00;;;9.90;99.90;;;;;;5051550;28;20021;-69
2024/01/22 11:08:28;;;;;;;1.58;0.88;;;9.90;99.90;;;;;;5051542;28;20028;-68
2024/01/22 11:10:55;;;;;;;1.98;1.10;;;9.90;99.90;;;;;;5051198;28;20032;-69
2024/01/22 11:13:21;;;;;;;2.53;1.45;;;9.90;99.90;;;;;;5051233;28;20090;-68
2024/01/22 11:15:48;;;;;;;12.73;6.00;;;9.90;99.90;;;;;;5051365;28;20103;-68
2024/01/22 11:18:17;;;;;;;12.88;5.30;;;10.00;99.90;;;;;;5051240;28;20565;-70
2024/01/22 11:20:42;;;;;;;29.77;11.00;;;10.00;99.90;;;;;;5051166;28;20501;-68
2024/01/22 11:23:15;;;;;;;18.38;7.07;;;10.00;99.90;;;;;;5051029;28;20021;-69
2024/01/22 11:25:40;;;;;;;16.65;6.93;;;10.00;99.90;;;;;;5050943;28;20021;-68
2024/01/22 11:28:09;;;;;;;8.00;3.10;;;9.90;99.90;;;;;;5051171;28;20099;-68
2024/01/22 11:30:44;;;;;;;3.38;2.22;;;9.90;99.90;;;;;;5051253;28;20446;-68
2024/01/22 11:33:25;;;;;;;3.83;2.25;;;9.90;99.90;;;;;;5051350;28;20390;-68
2024/01/22 11:35:52;;;;;;;8.77;3.47;;;9.90;99.90;;;;;;5050506;28;20159;-68
2024/01/22 11:38:42;;;;;;;11.05;6.25;;;9.80;99.90;;;;;;5032062;28;20057;-68
2024/01/22 11:41:08;;;;;;;5.20;2.67;;;9.80;99.90;;;;;;5050983;28;20025;-68
2024/01/22 11:43:33;;;;;;;5.45;2.45;;;9.70;99.90;;;;;;5051308;28;20028;-69
2024/01/22 11:46:14;;;;;;;3.80;1.75;;;9.70;99.90;;;;;;5050050;28;20025;-68
2024/01/22 11:48:40;;;;;;;1.98;0.98;;;9.60;99.90;;;;;;5054836;28;20033;-68
2024/01/22 11:51:06;;;;;;;2.40;1.20;;;9.70;99.90;;;;;;5054994;28;20384;-69
2024/01/22 11:53:31;;;;;;;3.88;1.60;;;9.70;99.90;;;;;;5054612;28;20121;-68
2024/01/22 11:56:01;;;;;;;7.13;2.58;;;9.70;99.90;;;;;;5054879;28;20447;-69
2024/01/22 11:58:31;;;;;;;2.67;1.02;;;9.60;99.90;;;;;;5054830;28;20033;-68
2024/01/22 12:00:58;;;;;;;3.63;1.67;;;9.70;99.90;;;;;;5054169;28;20441;-68
2024/01/22 12:03:25;;;;;;;15.68;5.05;;;9.70;99.90;;;;;;5053939;28;20020;-68
2024/01/22 12:06:05;;;;;;;4.25;1.25;;;9.70;99.90;;;;;;5036834;28;20029;-68
2024/01/22 12:08:31;;;;;;;5.10;2.50;;;9.70;99.90;;;;;;5054867;28;20096;-68
2024/01/22 12:11:06;;;;;;;1.90;0.90;;;9.80;99.90;;;;;;5054569;28;20051;-69
2024/01/22 12:13:32;;;;;;;5.80;1.80;;;9.80;99.90;;;;;;5053876;28;20055;-68
2024/01/22 12:15:58;;;;;;;5.80;2.00;;;9.80;99.90;;;;;;5054412;28;20105;-68
2024/01/22 12:18:24;;;;;;;8.52;2.92;;;9.80;99.90;;;;;;5054386;28;20029;-68
2024/01/22 12:20:50;;;;;;;5.95;2.22;;;9.80;99.90;;;;;;5054375;28;20032;-68
2024/01/22 12:23:28;;;;;;;3.10;0.70;;;9.80;99.90;;;;;;5054458;28;20390;-68
2024/01/22 12:25:55;;;;;;;5.07;0.60;;;9.90;99.90;;;;;;5054884;28;20017;-68
2024/01/22 12:28:21;;;;;;;3.78;1.10;;;9.90;99.90;;;;;;5054253;28;20045;-68
2024/01/22 12:31:00;;;;;;;2.30;1.10;;;9.90;99.90;;;;;;5053776;28;20040;-68
2024/01/22 12:33:26;;;;;;;1.00;0.73;;;10.00;99.90;;;;;;5054594;28;20432;-68
2024/01/22 12:36:16;;;;;;;3.53;0.40;;;10.00;99.90;;;;;;5053584;28;20029;-68
2024/01/22 12:38:49;;;;;;;3.42;0.90;;;10.10;99.90;;;;;;5053877;28;20059;-68
2024/01/22 12:41:15;;;;;;;1.20;0.65;;;10.10;99.90;;;;;;5035507;28;20040;-68
2024/01/22 12:43:41;;;;;;;2.30;0.40;;;10.10;99.90;;;;;;5053787;28;20044;-68
2024/01/22 12:46:13;;;;;;;3.05;0.52;;;10.20;99.90;;;;;;5054083;28;20104;-68
2024/01/22 12:48:39;;;;;;;4.13;1.45;;;10.30;99.90;;;;;;5053584;28;20407;-68
2024/01/22 12:51:06;;;;;;;2.80;1.30;;;10.40;99.90;;;;;;5053701;28;20032;-69
2024/01/22 12:53:33;;;;;;;4.25;0.93;;;10.50;99.90;;;;;;5053767;28;20478;-68